createdAt,value
2024-03-03T00:00:45.096Z,8.85
2024-03-03T00:04:40.096Z,8.69
2024-03-03T00:07:52.678Z,8.73
2024-03-03T00:11:01.037Z,8.73
2024-03-03T00:14:05.851Z,8.69
2024-03-03T00:17:21.182Z,8.47
2024-03-03T00:21:43.294Z,8.14
2024-03-03T00:24:49.738Z,8.09
2024-03-03T00:28:03.148Z,8.05
2024-03-03T00:31:07.788Z,7.89
2024-03-03T00:34:18.302Z,7.59
2024-03-03T00:37:26.036Z,7.97
2024-03-03T00:41:21.051Z,8.19
2024-03-03T00:44:36.686Z,8.30
2024-03-03T00:47:43.610Z,8.29
2024-03-03T00:50:55.350Z,8.39
2024-03-03T00:54:32.775Z,8.32
2024-03-03T00:57:52.168Z,8.39
2024-03-03T01:01:10.481Z,8.45
2024-03-03T01:04:20.726Z,8.28
2024-03-03T01:07:30.495Z,8.02
2024-03-03T01:10:34.877Z,8.07
2024-03-03T01:13:48.081Z,8.32
2024-03-03T01:26:08.505Z,8.27
2024-03-03T01:29:12.468Z,7.91
2024-03-03T01:32:24.517Z,7.91
2024-03-03T01:35:32.246Z,7.84
2024-03-03T01:38:37.593Z,7.80
2024-03-03T01:41:49.535Z,7.69
2024-03-03T01:44:54.228Z,7.81
2024-03-03T01:48:00.911Z,7.84
2024-03-03T01:51:09.952Z,7.33
2024-03-03T01:54:16.016Z,7.03
2024-03-03T01:57:25.098Z,7.24
2024-03-03T02:00:31.785Z,7.17
2024-03-03T02:03:52.014Z,7.34
2024-03-03T02:06:58.596Z,7.31
2024-03-03T02:10:09.029Z,7.21
2024-03-03T02:13:14.345Z,7.11
2024-03-03T02:16:21.127Z,7.21
2024-03-03T02:19:26.987Z,7.20
2024-03-03T02:22:45.104Z,7.18
2024-03-03T02:25:50.402Z,7.11
2024-03-03T02:30:19.739Z,7.11
2024-03-03T02:33:30.932Z,6.55
2024-03-03T02:36:39.091Z,6.54
2024-03-03T02:40:28.688Z,6.67
2024-03-03T02:43:37.342Z,6.58
2024-03-03T02:47:58.125Z,6.88
2024-03-03T02:51:09.823Z,6.81
2024-03-03T02:54:19.258Z,6.83
2024-03-03T02:58:05.223Z,6.91
2024-03-03T03:05:00.056Z,6.75
2024-03-03T03:08:15.056Z,6.91
2024-03-03T03:11:25.627Z,6.80
2024-03-03T03:14:31.481Z,6.70
2024-03-03T03:17:44.040Z,6.66
2024-03-03T03:20:58.020Z,6.68
2024-03-03T03:24:05.913Z,6.63
2024-03-03T03:31:40.285Z,6.27
2024-03-03T03:35:04.224Z,5.99
2024-03-03T03:38:24.417Z,5.94
2024-03-03T03:41:30.755Z,6.08
2024-03-03T03:44:50.936Z,6.10
2024-03-03T03:48:48.100Z,6.27
2024-03-03T03:52:13.524Z,6.29
2024-03-03T03:55:36.656Z,6.36
2024-03-03T03:59:03.282Z,6.42
2024-03-03T04:02:41.237Z,6.36
2024-03-03T04:06:20.748Z,6.39
2024-03-03T04:10:50.050Z,6.33
2024-03-03T04:14:44.882Z,5.72
2024-03-03T04:18:23.015Z,5.82
2024-03-03T04:21:49.757Z,5.85
2024-03-03T04:24:56.192Z,5.61
2024-03-03T04:28:10.014Z,5.73
2024-03-03T04:31:20.120Z,6.04
2024-03-03T04:34:42.316Z,6.04
2024-03-03T04:37:52.377Z,6.11
2024-03-03T04:40:59.098Z,5.99
2024-03-03T04:44:05.969Z,6.12
2024-03-03T04:47:12.246Z,6.16
2024-03-03T04:50:18.301Z,5.96
2024-03-03T04:53:25.942Z,5.73
2024-03-03T04:56:33.833Z,5.95
2024-03-03T05:00:57.205Z,6.23
2024-03-03T05:04:03.830Z,6.05
2024-03-03T05:07:08.137Z,6.15
2024-03-03T05:10:15.651Z,6.31
2024-03-03T05:13:20.181Z,6.20
2024-03-03T05:16:29.329Z,5.45
2024-03-03T05:19:33.960Z,5.86
2024-03-03T05:22:40.160Z,5.91
2024-03-03T05:25:48.165Z,6.11
2024-03-03T05:28:55.528Z,5.98
2024-03-03T05:32:00.175Z,6.19
2024-03-03T05:40:20.268Z,6.29
2024-03-03T05:43:30.660Z,6.38
2024-03-03T05:46:40.436Z,6.42
2024-03-03T05:49:45.999Z,6.35
2024-03-03T05:52:51.673Z,6.25
2024-03-03T05:55:56.588Z,6.30
2024-03-03T05:59:08.036Z,6.38
2024-03-03T06:02:14.135Z,6.44
2024-03-03T06:05:24.179Z,6.77
2024-03-03T06:08:35.823Z,6.80
2024-03-03T06:11:42.443Z,6.91
2024-03-03T06:14:49.438Z,7.05
2024-03-03T06:17:56.511Z,7.15
2024-03-03T06:21:00.595Z,7.25
2024-03-03T06:24:07.287Z,7.35
2024-03-03T06:27:11.145Z,7.42
2024-03-03T06:30:17.554Z,7.66
2024-03-03T06:33:21.943Z,7.69
2024-03-03T06:36:26.253Z,7.58
2024-03-03T06:39:31.974Z,8.15
2024-03-03T06:42:36.367Z,8.13
2024-03-03T06:45:44.080Z,8.69
2024-03-03T06:48:52.798Z,9.13
2024-03-03T06:51:59.738Z,8.91
2024-03-03T06:55:37.458Z,8.94
2024-03-03T06:58:42.819Z,9.12
2024-03-03T07:01:48.099Z,8.81
2024-03-03T07:04:52.550Z,8.81
2024-03-03T07:07:56.799Z,8.79
2024-03-03T07:11:01.136Z,9.11
2024-03-03T07:14:07.364Z,10.50
2024-03-03T07:17:13.628Z,12.06
2024-03-03T07:20:19.437Z,12.74
2024-03-03T07:23:23.988Z,13.64
2024-03-03T07:26:28.039Z,13.84
2024-03-03T07:29:32.399Z,12.67
2024-03-03T07:37:20.084Z,11.77
2024-03-03T07:40:25.828Z,13.26
2024-03-03T07:43:32.123Z,14.54
2024-03-03T07:46:36.842Z,15.40
2024-03-03T07:49:59.210Z,15.82
2024-03-03T07:53:11.549Z,16.47
2024-03-03T07:56:17.270Z,17.10
2024-03-03T07:59:47.733Z,17.31
2024-03-03T08:03:14.171Z,17.81
2024-03-03T08:06:34.593Z,18.13
2024-03-03T08:09:39.963Z,18.63
2024-03-03T08:12:45.690Z,18.95
2024-03-03T08:15:49.601Z,19.30
2024-03-03T08:18:54.826Z,19.21
2024-03-03T08:21:58.553Z,18.09
2024-03-03T08:25:04.721Z,17.02
2024-03-03T08:28:10.119Z,17.33
2024-03-03T08:31:14.956Z,18.42
2024-03-03T08:34:18.761Z,18.87
2024-03-03T08:37:23.127Z,19.18
2024-03-03T08:40:30.698Z,19.60
2024-03-03T08:43:34.878Z,19.01
2024-03-03T08:46:38.754Z,17.98
2024-03-03T08:49:42.913Z,16.64
2024-03-03T08:52:46.705Z,16.17
2024-03-03T08:55:52.259Z,15.97
2024-03-03T08:58:55.990Z,15.60
2024-03-03T09:02:00.448Z,15.41
2024-03-03T09:05:04.259Z,15.23
2024-03-03T09:08:09.561Z,15.10
2024-03-03T09:11:15.142Z,14.85
2024-03-03T09:14:24.588Z,14.85
2024-03-03T09:17:28.719Z,14.59
2024-03-03T09:20:33.097Z,14.57
2024-03-03T09:23:37.242Z,14.55
2024-03-03T09:26:42.900Z,14.38
2024-03-03T09:29:46.683Z,14.44
2024-03-03T09:32:55.021Z,14.41
2024-03-03T09:35:58.911Z,14.37
2024-03-03T09:39:04.559Z,14.28
2024-03-03T09:42:12.171Z,14.41
2024-03-03T09:45:20.141Z,14.39
2024-03-03T09:48:25.325Z,14.40
2024-03-03T09:51:32.155Z,14.38
2024-03-03T09:54:36.800Z,14.37
2024-03-03T09:57:44.368Z,14.47
2024-03-03T10:00:48.349Z,14.44
2024-03-03T10:03:56.919Z,14.38
2024-03-03T10:07:04.184Z,14.47
2024-03-03T10:10:10.601Z,14.56
2024-03-03T10:13:18.839Z,14.57
2024-03-03T10:16:23.677Z,14.56
2024-03-03T10:19:31.082Z,14.55
2024-03-03T10:22:35.619Z,14.53
2024-03-03T10:25:39.955Z,14.58
2024-03-03T10:29:05.463Z,14.66
2024-03-03T10:32:11.321Z,14.74
2024-03-03T10:35:16.466Z,14.81
2024-03-03T10:38:20.346Z,14.79
2024-03-03T10:41:24.443Z,14.87
2024-03-03T10:44:29.716Z,14.90
2024-03-03T10:47:34.147Z,15.00
2024-03-03T10:50:39.869Z,15.04
2024-03-03T10:53:44.194Z,14.83
2024-03-03T10:56:49.363Z,14.97
2024-03-03T10:59:56.771Z,14.98
2024-03-03T11:03:02.150Z,15.12
2024-03-03T11:06:09.718Z,15.14
2024-03-03T11:09:14.390Z,15.21
2024-03-03T11:12:20.020Z,15.28
2024-03-03T11:15:27.715Z,15.34
2024-03-03T11:18:34.320Z,15.19
2024-03-03T11:21:39.560Z,15.31
2024-03-03T11:24:51.500Z,15.13
2024-03-03T11:27:59.424Z,15.10
2024-03-03T11:31:06.673Z,15.18
2024-03-03T11:34:11.673Z,15.29
2024-03-03T11:37:17.186Z,15.31
2024-03-03T11:40:21.500Z,15.22
2024-03-03T11:43:28.293Z,15.29
2024-03-03T11:46:51.157Z,15.37
2024-03-03T11:49:55.678Z,15.43
2024-03-03T11:53:01.472Z,15.54
2024-03-03T11:56:19.422Z,15.44
2024-03-03T11:59:27.167Z,15.57
2024-03-03T12:02:35.401Z,15.49
2024-03-03T12:05:40.824Z,15.36
2024-03-03T12:08:49.370Z,15.38
2024-03-03T12:11:57.613Z,15.37
2024-03-03T12:15:04.486Z,15.42
2024-03-03T12:18:12.955Z,15.51
2024-03-03T12:21:18.773Z,15.55
2024-03-03T12:24:23.017Z,15.64
2024-03-03T12:27:27.920Z,15.75
2024-03-03T12:30:37.532Z,15.87
2024-03-03T12:33:44.059Z,16.00
2024-03-03T12:36:48.174Z,16.06
2024-03-03T12:39:52.783Z,16.17
2024-03-03T12:43:00.008Z,16.29
2024-03-03T12:46:04.846Z,16.32
2024-03-03T12:49:47.015Z,16.38
2024-03-03T12:53:53.929Z,16.53
2024-03-03T12:57:01.009Z,16.64
2024-03-03T13:00:06.675Z,16.66
2024-03-03T13:03:11.445Z,16.68
2024-03-03T13:06:20.407Z,16.76
2024-03-03T13:09:31.254Z,16.77
2024-03-03T13:12:35.950Z,16.83
2024-03-03T13:15:48.006Z,16.82
2024-03-03T13:19:01.220Z,16.91
2024-03-03T13:22:07.194Z,16.77
2024-03-03T13:25:11.544Z,16.89
2024-03-03T13:28:17.261Z,16.92
2024-03-03T13:31:21.252Z,16.98
2024-03-03T13:34:25.921Z,17.01
2024-03-03T13:37:31.390Z,16.95
2024-03-03T13:40:35.880Z,16.92
2024-03-03T13:43:39.767Z,16.91
2024-03-03T13:46:44.664Z,16.94
2024-03-03T13:49:48.736Z,17.03
2024-03-03T13:52:56.474Z,17.10
2024-03-03T13:56:01.434Z,17.07
2024-03-03T13:59:05.422Z,17.03
2024-03-03T14:02:09.127Z,17.04
2024-03-03T14:05:14.171Z,17.01
2024-03-03T14:08:19.456Z,16.93
2024-03-03T14:11:24.183Z,16.93
2024-03-03T14:14:27.953Z,16.89
2024-03-03T14:17:32.618Z,16.77
2024-03-03T14:24:50.617Z,16.86
2024-03-03T14:28:04.265Z,16.89
2024-03-03T14:31:13.859Z,16.90
2024-03-03T14:34:17.836Z,16.85
2024-03-03T14:37:21.992Z,16.80
2024-03-03T14:40:27.380Z,16.86
2024-03-03T14:43:32.693Z,16.85
2024-03-03T14:46:36.703Z,16.86
2024-03-03T14:49:40.844Z,16.78
2024-03-03T14:52:44.692Z,16.80
2024-03-03T14:55:50.585Z,16.81
2024-03-03T14:58:54.851Z,16.76
2024-03-03T15:01:58.995Z,16.79
2024-03-03T15:05:02.950Z,16.73
2024-03-03T15:08:08.579Z,16.70
2024-03-03T15:11:13.807Z,16.68
2024-03-03T15:14:18.199Z,16.60
2024-03-03T15:17:22.998Z,16.62
2024-03-03T15:20:27.905Z,16.55
2024-03-03T15:23:31.952Z,16.52
2024-03-03T15:26:38.169Z,16.50
2024-03-03T15:29:44.145Z,16.44
2024-03-03T15:32:50.852Z,16.39
2024-03-03T15:35:54.742Z,16.32
2024-03-03T15:38:59.107Z,16.27
2024-03-03T15:42:04.375Z,16.27
2024-03-03T15:45:09.367Z,16.18
2024-03-03T15:48:14.858Z,16.16
2024-03-03T15:51:19.175Z,16.16
2024-03-03T15:54:23.332Z,16.14
2024-03-03T15:57:29.910Z,16.09
2024-03-03T16:00:33.785Z,16.05
2024-03-03T16:03:39.415Z,16.02
2024-03-03T16:06:43.580Z,15.99
2024-03-03T16:09:51.161Z,15.90
2024-03-03T16:13:00.034Z,15.91
2024-03-03T16:16:14.478Z,15.88
2024-03-03T16:19:23.233Z,15.86
2024-03-03T16:22:29.433Z,15.82
2024-03-03T16:25:52.231Z,15.69
2024-03-03T16:28:57.448Z,15.61
2024-03-03T16:32:02.496Z,15.51
2024-03-03T16:35:08.780Z,15.43
2024-03-03T16:38:13.410Z,15.37
2024-03-03T16:41:21.353Z,15.35
2024-03-03T16:44:27.078Z,15.34
2024-03-03T16:47:32.067Z,15.30
2024-03-03T16:50:37.508Z,15.32
2024-03-03T16:53:41.464Z,15.30
2024-03-03T16:56:45.901Z,15.22
2024-03-03T16:59:52.293Z,15.13
2024-03-03T17:02:56.978Z,14.92
2024-03-03T17:06:01.181Z,14.78
2024-03-03T17:09:06.292Z,14.58
2024-03-03T17:12:13.398Z,14.42
2024-03-03T17:15:28.668Z,14.32
2024-03-03T17:19:06.785Z,14.06
2024-03-03T17:22:11.943Z,13.93
2024-03-03T17:30:20.877Z,13.58
2024-03-03T17:33:28.540Z,13.56
2024-03-03T17:36:32.516Z,13.58
2024-03-03T17:39:36.675Z,13.61
2024-03-03T17:42:40.431Z,13.65
2024-03-03T17:45:44.865Z,13.76
2024-03-03T17:48:50.580Z,13.72
2024-03-03T17:51:54.993Z,13.74
2024-03-03T17:54:59.075Z,13.75
2024-03-03T17:58:04.046Z,13.74
2024-03-03T18:01:09.152Z,13.72
2024-03-03T18:04:55.406Z,13.85
2024-03-03T18:08:10.702Z,13.88
2024-03-03T18:11:16.906Z,13.96
2024-03-03T18:14:22.693Z,13.64
2024-03-03T18:17:29.868Z,13.23
2024-03-03T18:20:45.140Z,12.79
2024-03-03T18:23:50.994Z,12.62
2024-03-03T18:26:55.826Z,12.61
2024-03-03T18:29:59.566Z,12.80
2024-03-03T18:33:05.320Z,12.65
2024-03-03T18:36:11.994Z,12.79
2024-03-03T18:39:25.265Z,12.86
2024-03-03T18:42:30.460Z,12.99
2024-03-03T18:45:36.348Z,13.02
2024-03-03T18:48:42.397Z,12.86
2024-03-03T18:51:52.870Z,13.04
2024-03-03T18:55:07.060Z,13.02
2024-03-03T18:58:11.931Z,12.95
2024-03-03T19:01:16.578Z,12.85
2024-03-03T19:04:21.865Z,12.80
2024-03-03T19:07:25.992Z,12.63
2024-03-03T19:10:31.666Z,12.34
2024-03-03T19:13:35.724Z,12.15
2024-03-03T19:16:40.822Z,12.01
2024-03-03T19:19:44.866Z,11.89
2024-03-03T19:22:51.437Z,11.73
2024-03-03T19:25:56.903Z,11.37
2024-03-03T19:29:02.224Z,11.29
2024-03-03T19:32:09.554Z,11.03
2024-03-03T19:35:14.188Z,10.81
2024-03-03T19:38:18.814Z,10.44
2024-03-03T19:41:24.961Z,10.57
2024-03-03T19:44:29.225Z,10.15
2024-03-03T19:47:33.692Z,10.24
2024-03-03T19:50:38.616Z,10.14
2024-03-03T19:53:45.648Z,10.06
2024-03-03T19:56:51.160Z,10.02
2024-03-03T19:59:58.942Z,9.86
2024-03-03T20:03:06.890Z,9.90
2024-03-03T20:06:11.452Z,9.75
2024-03-03T20:09:42.869Z,9.84
2024-03-03T20:12:48.548Z,9.60
2024-03-03T20:15:52.640Z,9.51
2024-03-03T20:18:57.147Z,9.39
2024-03-03T20:22:01.015Z,9.28
2024-03-03T20:25:07.234Z,9.09
2024-03-03T20:28:12.861Z,9.02
2024-03-03T20:31:17.553Z,8.83
2024-03-03T20:34:21.498Z,8.95
2024-03-03T20:37:36.576Z,8.57
2024-03-03T20:40:44.483Z,8.90
2024-03-03T20:43:52.761Z,8.71
2024-03-03T20:46:56.526Z,8.89
2024-03-03T20:50:00.899Z,8.74
2024-03-03T20:53:05.237Z,8.53
2024-03-03T20:56:09.625Z,8.47
2024-03-03T20:59:14.951Z,8.56
2024-03-03T21:02:19.195Z,8.30
2024-03-03T21:05:26.540Z,8.42
2024-03-03T21:08:31.375Z,8.06
2024-03-03T21:11:35.316Z,8.28
2024-03-03T21:19:22.205Z,8.10
2024-03-03T21:22:26.398Z,7.43
2024-03-03T21:25:32.975Z,7.68
2024-03-03T21:28:38.514Z,7.35
2024-03-03T21:31:42.767Z,7.67
2024-03-03T21:34:49.842Z,7.39
2024-03-03T21:37:53.913Z,7.27
2024-03-03T21:41:01.996Z,7.09
2024-03-03T21:44:08.500Z,6.91
2024-03-03T21:47:12.860Z,7.20
2024-03-03T21:50:18.541Z,7.28
2024-03-03T21:53:22.380Z,6.95
2024-03-03T21:56:28.525Z,7.11
2024-03-03T21:59:32.395Z,7.27
2024-03-03T22:02:36.873Z,6.91
2024-03-03T22:05:42.800Z,6.67
2024-03-03T22:08:47.089Z,6.72
2024-03-03T22:11:53.060Z,6.99
2024-03-03T22:14:57.383Z,7.00
2024-03-03T22:18:01.562Z,7.04
2024-03-03T22:21:32.139Z,7.01
2024-03-03T22:24:36.840Z,6.98
2024-03-03T22:27:40.785Z,6.99
2024-03-03T22:30:46.564Z,6.96
2024-03-03T22:33:50.573Z,7.01
2024-03-03T22:36:57.185Z,6.90
2024-03-03T22:40:01.447Z,6.76
2024-03-03T22:43:06.491Z,6.43
2024-03-03T22:46:17.114Z,6.53
2024-03-03T22:49:21.322Z,6.82
2024-03-03T22:52:26.779Z,6.46
2024-03-03T22:55:31.193Z,6.56
2024-03-03T22:58:36.103Z,6.34
2024-03-03T23:01:41.131Z,6.32
2024-03-03T23:04:48.364Z,6.14
2024-03-03T23:07:55.781Z,6.43
2024-03-03T23:10:59.665Z,6.41
2024-03-03T23:14:04.201Z,6.28
2024-03-03T23:17:08.284Z,5.95
2024-03-03T23:20:13.399Z,6.24
2024-03-03T23:23:18.691Z,6.26
2024-03-03T23:26:22.984Z,6.19
2024-03-03T23:29:26.799Z,6.08
2024-03-03T23:32:32.234Z,6.18
2024-03-03T23:35:35.968Z,5.91
2024-03-03T23:38:41.683Z,6.12
2024-03-03T23:41:45.403Z,5.78
2024-03-03T23:44:49.787Z,5.92
2024-03-03T23:47:54.607Z,5.54
2024-03-03T23:51:00.954Z,5.85
2024-03-03T23:54:06.351Z,5.92
2024-03-03T23:57:10.431Z,5.77
